Time;durP1;ratioP1;P1;durP2;ratioP2;P2;SDS_P1;SDS_P2;PMS_P1;PMS_P2;Temp;Humidity;BMP_temperature;BMP_pressure;BME280_temperature;BME280_humidity;BME280_pressure;Samples;Min_cycle;Max_cycle;Signal;HPM_P1;HPM_P2
2022/06/19 00:02:26;;;;;;;8.30;1.55;;;16.50;99.90;;;;;;5044552;28;38456;-80
2022/06/19 00:04:55;;;;;;;8.75;1.45;;;16.40;99.90;;;;;;5030494;28;37473;-81
2022/06/19 00:07:22;;;;;;;6.65;1.23;;;16.40;99.90;;;;;;5050042;27;37861;-81
2022/06/19 00:09:48;;;;;;;10.77;1.63;;;16.40;99.90;;;;;;5038476;28;38871;-81
2022/06/19 00:12:16;;;;;;;11.35;1.75;;;16.50;99.90;;;;;;5035074;28;38180;-81
2022/06/19 00:14:42;;;;;;;8.00;1.85;;;16.40;99.90;;;;;;5034308;28;36598;-80
2022/06/19 00:17:09;;;;;;;10.98;1.50;;;16.40;99.90;;;;;;5051975;28;38967;-80
2022/06/19 00:19:36;;;;;;;9.57;1.85;;;16.40;99.90;;;;;;5067589;28;36571;-81
2022/06/19 00:22:03;;;;;;;9.98;1.60;;;16.40;99.90;;;;;;5035890;28;38196;-81
2022/06/19 00:24:29;;;;;;;10.30;1.67;;;16.50;99.90;;;;;;5038870;28;37586;-81
2022/06/19 00:26:56;;;;;;;10.48;1.85;;;16.50;99.90;;;;;;5030459;28;39832;-80
2022/06/19 00:29:23;;;;;;;7.97;1.80;;;16.50;99.90;;;;;;5030184;28;37965;-80
2022/06/19 00:31:49;;;;;;;14.85;2.42;;;16.50;99.90;;;;;;5050736;28;37847;-80
2022/06/19 00:34:15;;;;;;;7.78;2.53;;;16.40;99.90;;;;;;5030094;28;38038;-80
2022/06/19 00:36:42;;;;;;;8.05;1.60;;;16.30;99.90;;;;;;5036521;28;40537;-80
2022/06/19 00:39:08;;;;;;;8.23;1.65;;;16.30;99.90;;;;;;5047849;28;39632;-80
2022/06/19 00:41:41;;;;;;;9.35;1.60;;;16.30;99.90;;;;;;5057465;28;39885;-80
2022/06/19 00:44:09;;;;;;;5.03;1.20;;;16.30;99.90;;;;;;5084891;27;39227;-80
2022/06/19 00:46:44;;;;;;;15.02;1.77;;;16.30;99.90;;;;;;5061175;27;38907;-80
2022/06/19 00:49:22;;;;;;;10.10;2.33;;;16.30;99.90;;;;;;5072429;27;38730;-80
2022/06/19 00:52:04;;;;;;;9.05;2.28;;;16.30;99.90;;;;;;5059398;28;39145;-79
2022/06/19 00:54:35;;;;;;;9.90;1.48;;;16.20;99.90;;;;;;5081798;27;48060;-80
2022/06/19 00:57:02;;;;;;;7.97;1.30;;;16.10;99.90;;;;;;5043981;27;38834;-80
2022/06/19 00:59:29;;;;;;;8.50;1.55;;;16.10;99.90;;;;;;5088858;27;39160;-79
2022/06/19 01:01:56;;;;;;;6.15;1.38;;;16.10;99.90;;;;;;5060269;28;37237;-79
2022/06/19 01:04:33;;;;;;;10.95;1.65;;;16.20;99.90;;;;;;5062184;27;37072;-80
2022/06/19 01:06:59;;;;;;;7.60;1.63;;;16.20;99.90;;;;;;5063523;28;39734;-80
2022/06/19 01:09:28;;;;;;;8.93;1.60;;;16.20;99.90;;;;;;5051383;28;38525;-80
2022/06/19 01:11:54;;;;;;;12.40;1.67;;;16.20;99.90;;;;;;5062382;28;38883;-79
2022/06/19 01:14:24;;;;;;;7.38;1.38;;;16.10;99.90;;;;;;5060508;28;37442;-80
2022/06/19 01:16:50;;;;;;;12.85;1.85;;;16.20;99.90;;;;;;5089546;27;39626;-80
2022/06/19 01:19:28;;;;;;;5.70;1.65;;;16.20;99.90;;;;;;5048892;27;38522;-80
2022/06/19 01:21:54;;;;;;;9.73;1.70;;;16.10;99.90;;;;;;5056324;28;39106;-80
2022/06/19 01:24:43;;;;;;;12.82;2.03;;;16.10;99.90;;;;;;5041394;27;37981;-80
2022/06/19 01:28:45;;;;;;;10.00;1.67;;;16.10;99.90;;;;;;5034993;28;39374;-79
2022/06/19 01:30:04;;;;;;;9.90;1.30;;;16.00;99.90;;;;;;5044238;28;38917;-79
2022/06/19 01:32:34;;;;;;;5.30;1.08;;;16.10;99.90;;;;;;5060683;28;47291;-80
2022/06/19 01:35:02;;;;;;;9.27;1.23;;;16.10;99.90;;;;;;5036509;28;37547;-80
2022/06/19 01:37:30;;;;;;;11.68;1.85;;;16.00;99.90;;;;;;5049421;27;47033;-80
2022/06/19 01:40:01;;;;;;;12.27;1.60;;;16.00;99.90;;;;;;5061012;28;39430;-80
2022/06/19 01:42:31;;;;;;;8.60;1.27;;;16.00;99.90;;;;;;5055166;27;48374;-79
2022/06/19 01:44:58;;;;;;;11.05;1.90;;;16.10;99.90;;;;;;5060569;27;37501;-80
2022/06/19 01:47:25;;;;;;;7.70;1.30;;;16.00;99.90;;;;;;5035048;28;38755;-81
2022/06/19 01:49:54;;;;;;;10.88;1.70;;;16.00;99.90;;;;;;5035922;28;39869;-80
2022/06/19 01:52:23;;;;;;;15.18;2.42;;;16.10;99.90;;;;;;5046734;28;38003;-80
2022/06/19 01:54:55;;;;;;;18.05;2.08;;;16.10;99.90;;;;;;5027021;28;36293;-81
2022/06/19 01:57:22;;;;;;;;;;;16.10;99.90;;;;;;5040917;28;37764;-80
2022/06/19 01:59:49;;;;;;;11.88;2.05;;;16.20;99.90;;;;;;5051065;28;39649;-81
2022/06/19 02:02:16;;;;;;;13.38;2.53;;;16.10;99.90;;;;;;5082704;27;39345;-80
2022/06/19 02:04:44;;;;;;;11.27;1.70;;;16.10;99.90;;;;;;5035061;28;38949;-80
2022/06/19 02:07:20;;;;;;;13.20;2.50;;;16.10;99.90;;;;;;5037091;28;39828;-80
2022/06/19 02:09:47;;;;;;;19.52;2.35;;;16.10;99.90;;;;;;5050190;27;38161;-80
2022/06/19 02:12:14;;;;;;;11.52;1.95;;;16.10;99.90;;;;;;5051038;28;38432;-81
2022/06/19 02:14:41;;;;;;;10.98;2.08;;;16.10;99.90;;;;;;5040386;28;37615;-80
2022/06/19 02:17:12;;;;;;;15.13;1.95;;;16.00;99.90;;;;;;5041553;28;39867;-80
2022/06/19 02:19:38;;;;;;;10.82;2.78;;;16.00;99.90;;;;;;5059833;27;39330;-80
2022/06/19 02:22:11;;;;;;;12.30;2.80;;;16.00;99.90;;;;;;5059896;28;39726;-81
2022/06/19 02:24:38;;;;;;;11.13;2.13;;;15.90;99.90;;;;;;5062107;27;38602;-80
2022/06/19 02:27:05;;;;;;;16.48;2.92;;;15.90;99.90;;;;;;5075259;28;41432;-80
2022/06/19 02:29:37;;;;;;;15.50;2.58;;;15.90;99.90;;;;;;5052304;28;39732;-80
2022/06/19 02:32:04;;;;;;;12.00;2.07;;;15.80;99.90;;;;;;5068344;27;37310;-81
2022/06/19 02:34:37;;;;;;;11.48;2.10;;;15.90;99.90;;;;;;5049813;28;38069;-80
2022/06/19 02:37:05;;;;;;;14.60;2.20;;;15.80;99.90;;;;;;5041553;28;38963;-80
2022/06/19 02:39:38;;;;;;;9.60;2.13;;;15.80;99.90;;;;;;5044919;28;38313;-80
2022/06/19 02:42:19;;;;;;;12.48;2.70;;;15.90;99.90;;;;;;5060350;27;39367;-81
2022/06/19 02:44:48;;;;;;;12.10;2.28;;;15.80;99.90;;;;;;5064613;28;37344;-80
2022/06/19 02:47:15;;;;;;;10.65;2.00;;;15.80;99.90;;;;;;5040531;28;38029;-78
2022/06/19 02:49:41;;;;;;;8.52;2.10;;;15.80;99.90;;;;;;5055394;28;37612;-77
2022/06/19 02:52:09;;;;;;;9.02;1.42;;;15.80;99.90;;;;;;5041147;28;39563;-79
2022/06/19 02:54:35;;;;;;;10.38;1.63;;;15.80;99.90;;;;;;5034590;28;37316;-79
2022/06/19 02:57:02;;;;;;;10.18;1.75;;;15.80;99.90;;;;;;5038066;28;37873;-79
2022/06/19 02:59:28;;;;;;;15.93;1.95;;;15.80;99.90;;;;;;5055246;28;39360;-79
2022/06/19 03:01:54;;;;;;;6.60;1.48;;;15.80;99.90;;;;;;5037257;28;38459;-79
2022/06/19 03:04:25;;;;;;;11.00;1.65;;;15.90;99.90;;;;;;5030301;28;36239;-78
2022/06/19 03:06:53;;;;;;;12.35;1.95;;;15.90;99.90;;;;;;5055348;28;37694;-79
2022/06/19 03:09:19;;;;;;;11.30;1.98;;;15.90;99.90;;;;;;5052353;27;38882;-79
2022/06/19 03:11:45;;;;;;;8.20;1.40;;;16.00;99.90;;;;;;5081946;27;40248;-79
2022/06/19 03:14:11;;;;;;;7.32;1.50;;;16.00;99.90;;;;;;5052236;27;35990;-79
2022/06/19 03:16:38;;;;;;;8.05;1.63;;;16.00;99.90;;;;;;5051385;28;38637;-79
2022/06/19 03:19:04;;;;;;;10.55;1.52;;;16.10;99.90;;;;;;5049652;28;39541;-80
2022/06/19 03:21:30;;;;;;;9.23;1.77;;;16.10;99.90;;;;;;5030777;28;37929;-80
2022/06/19 03:23:57;;;;;;;8.10;1.50;;;16.10;99.90;;;;;;5055588;28;38625;-80
2022/06/19 03:26:23;;;;;;;6.13;1.13;;;16.10;99.90;;;;;;5038323;28;38742;-80
2022/06/19 03:28:49;;;;;;;6.05;1.13;;;16.10;99.90;;;;;;5077076;27;39258;-80
2022/06/19 03:31:21;;;;;;;10.20;1.25;;;16.10;99.90;;;;;;5047740;28;40596;-80
2022/06/19 03:33:48;;;;;;;8.45;1.85;;;16.10;99.90;;;;;;5036635;28;38228;-80
2022/06/19 03:36:14;;;;;;;9.98;1.73;;;16.10;99.90;;;;;;5029827;28;39823;-80
2022/06/19 03:38:41;;;;;;;8.02;1.85;;;16.00;99.90;;;;;;5042548;28;38701;-80
2022/06/19 03:41:08;;;;;;;7.80;2.03;;;15.80;99.90;;;;;;5036104;28;38875;-81
2022/06/19 03:43:34;;;;;;;8.02;1.52;;;15.50;99.90;;;;;;5050269;27;37008;-81
2022/06/19 03:46:02;;;;;;;9.25;1.60;;;15.10;99.90;;;;;;5058719;27;39617;-79
2022/06/19 03:48:28;;;;;;;12.02;1.83;;;14.60;99.90;;;;;;5064885;27;48627;-80
2022/06/19 03:50:54;;;;;;;8.88;1.77;;;14.20;99.90;;;;;;5071766;27;38867;-78
2022/06/19 03:53:20;;;;;;;10.23;1.80;;;13.90;99.90;;;;;;5078112;27;38240;-78
2022/06/19 03:55:47;;;;;;;11.13;1.90;;;13.70;99.90;;;;;;5057913;28;38523;-80
2022/06/19 03:58:14;;;;;;;12.05;1.90;;;13.60;99.90;;;;;;5066691;27;37378;-79
2022/06/19 04:00:40;;;;;;;14.93;2.40;;;13.50;99.90;;;;;;5068344;28;39093;-78
2022/06/19 04:03:07;;;;;;;12.95;1.52;;;13.50;99.90;;;;;;5080627;27;36944;-79
2022/06/19 04:05:33;;;;;;;9.15;1.58;;;13.50;99.90;;;;;;5050699;27;38869;-79
2022/06/19 04:07:59;;;;;;;11.45;2.60;;;13.60;99.90;;;;;;5072870;27;38254;-80
2022/06/19 04:10:26;;;;;;;13.52;2.38;;;13.60;99.90;;;;;;5040927;28;39805;-79
2022/06/19 04:12:53;;;;;;;10.45;1.80;;;13.70;99.90;;;;;;5060702;27;37174;-79
2022/06/19 04:15:19;;;;;;;12.18;2.10;;;13.90;99.90;;;;;;5050089;28;39721;-80
2022/06/19 04:17:45;;;;;;;9.38;1.40;;;14.00;99.90;;;;;;5056025;28;39656;-80
2022/06/19 04:20:12;;;;;;;9.40;1.60;;;14.10;99.90;;;;;;5055218;28;39285;-79
2022/06/19 04:22:39;;;;;;;8.02;2.47;;;14.10;99.90;;;;;;5054451;28;37898;-79
2022/06/19 04:25:07;;;;;;;7.20;1.35;;;14.10;99.90;;;;;;5063130;28;38928;-79
2022/06/19 04:27:37;;;;;;;13.15;1.83;;;14.00;99.90;;;;;;5051761;28;39319;-79
2022/06/19 04:30:03;;;;;;;11.52;2.00;;;14.10;99.90;;;;;;5070463;27;39334;-80
2022/06/19 04:32:30;;;;;;;14.60;1.92;;;14.00;99.90;;;;;;5061989;27;37269;-79
2022/06/19 04:34:56;;;;;;;10.93;1.60;;;14.00;99.90;;;;;;5057964;27;38778;-79
2022/06/19 04:37:22;;;;;;;11.23;2.08;;;14.00;99.90;;;;;;5056871;27;38796;-79
2022/06/19 04:39:48;;;;;;;10.27;1.70;;;14.10;99.90;;;;;;5059658;28;39144;-79
2022/06/19 04:42:15;;;;;;;13.18;1.85;;;14.00;99.90;;;;;;5062105;27;38236;-79
2022/06/19 04:44:41;;;;;;;13.85;2.45;;;14.10;99.90;;;;;;5062595;27;39219;-79
2022/06/19 04:47:07;;;;;;;9.73;2.15;;;14.10;99.90;;;;;;5061066;27;38901;-79
2022/06/19 04:49:33;;;;;;;9.07;1.75;;;14.20;99.90;;;;;;5053585;28;37781;-79
2022/06/19 04:51:59;;;;;;;8.13;1.63;;;14.10;99.90;;;;;;5043893;28;39706;-79
2022/06/19 04:54:25;;;;;;;6.03;1.65;;;14.10;99.90;;;;;;5050123;27;37785;-79
2022/06/19 04:56:51;;;;;;;12.57;2.20;;;14.10;99.90;;;;;;5064064;28;40652;-79
2022/06/19 04:59:17;;;;;;;9.20;1.73;;;14.00;99.90;;;;;;5056067;28;39346;-78
2022/06/19 05:01:44;;;;;;;8.88;1.85;;;13.90;99.90;;;;;;5033372;28;38896;-78
2022/06/19 05:04:12;;;;;;;6.72;1.73;;;13.90;99.90;;;;;;5035537;28;39366;-79
2022/06/19 05:06:38;;;;;;;13.68;2.38;;;13.90;99.90;;;;;;5059137;28;40333;-79
2022/06/19 05:09:05;;;;;;;13.65;2.10;;;13.80;99.90;;;;;;5065396;27;38668;-79
2022/06/19 05:11:32;;;;;;;18.23;2.60;;;13.80;99.90;;;;;;5042392;28;39219;-78
2022/06/19 05:13:59;;;;;;;14.90;2.80;;;13.70;99.90;;;;;;5051797;28;39721;-78
2022/06/19 05:16:26;;;;;;;13.43;2.50;;;13.60;99.90;;;;;;5061522;27;40016;-77
2022/06/19 05:18:55;;;;;;;13.30;2.33;;;13.50;99.90;;;;;;5060917;27;39422;-78
2022/06/19 05:21:24;;;;;;;14.82;2.20;;;13.40;99.90;;;;;;5094591;27;36753;-77
2022/06/19 05:23:51;;;;;;;14.15;2.45;;;13.40;99.90;;;;;;5062555;27;37795;-77
2022/06/19 05:26:26;;;;;;;16.25;2.55;;;13.40;99.90;;;;;;5074464;27;40078;-79
2022/06/19 05:28:55;;;;;;;14.55;3.35;;;13.40;99.90;;;;;;5035871;28;38631;-77
2022/06/19 05:31:21;;;;;;;15.07;3.17;;;13.30;99.90;;;;;;5038609;28;37617;-77
2022/06/19 05:33:47;;;;;;;21.42;3.08;;;13.30;99.90;;;;;;5032779;28;40741;-77
2022/06/19 05:36:15;;;;;;;11.15;2.30;;;13.30;99.90;;;;;;5043068;28;39051;-77
2022/06/19 05:38:41;;;;;;;12.80;2.65;;;13.30;99.90;;;;;;5055759;28;39132;-77
2022/06/19 05:41:07;;;;;;;11.98;2.63;;;13.40;99.90;;;;;;5044561;28;36222;-78
2022/06/19 05:43:34;;;;;;;15.75;2.80;;;13.40;99.90;;;;;;5042368;28;37539;-77
2022/06/19 05:46:06;;;;;;;13.75;3.00;;;13.30;99.90;;;;;;5035647;28;39440;-77
2022/06/19 05:48:34;;;;;;;10.98;2.58;;;13.40;99.90;;;;;;5067441;27;48043;-77
2022/06/19 05:51:22;;;;;;;13.63;2.65;;;13.40;99.90;;;;;;5083082;28;38935;-78
2022/06/19 05:53:51;;;;;;;20.90;2.85;;;13.30;99.90;;;;;;5078268;27;47693;-79
2022/06/19 05:56:17;;;;;;;14.23;2.35;;;13.30;99.90;;;;;;5047099;27;39114;-78
2022/06/19 05:58:44;;;;;;;12.52;2.80;;;13.30;99.90;;;;;;5037011;28;39248;-79
2022/06/19 06:01:12;;;;;;;16.67;2.55;;;13.30;99.90;;;;;;5060168;27;37361;-78
2022/06/19 06:03:42;;;;;;;16.73;2.83;;;13.30;99.90;;;;;;5041802;28;39262;-79
2022/06/19 06:06:13;;;;;;;11.93;2.70;;;13.30;99.90;;;;;;5047644;27;38628;-80
2022/06/19 06:08:39;;;;;;;10.98;2.13;;;13.30;99.90;;;;;;5060100;28;39850;-77
2022/06/19 06:11:06;;;;;;;14.18;2.20;;;13.40;99.90;;;;;;5045267;28;38562;-78
2022/06/19 06:13:32;;;;;;;16.40;2.80;;;13.50;99.90;;;;;;5049861;28;38725;-78
2022/06/19 06:15:59;;;;;;;15.27;2.20;;;13.50;99.90;;;;;;5043263;28;38751;-77
2022/06/19 06:18:25;;;;;;;12.18;2.50;;;13.50;99.90;;;;;;5041945;28;40470;-77
2022/06/19 06:20:56;;;;;;;12.80;2.65;;;13.50;99.90;;;;;;5040566;28;37873;-77
2022/06/19 06:23:23;;;;;;;20.25;3.47;;;13.60;99.90;;;;;;5063689;28;37786;-77
2022/06/19 06:26:11;;;;;;;13.15;2.80;;;13.50;99.90;;;;;;5041020;28;38427;-77
2022/06/19 06:28:39;;;;;;;11.90;2.58;;;13.60;99.90;;;;;;5059623;28;47258;-78
2022/06/19 06:31:05;;;;;;;18.63;2.92;;;13.60;99.90;;;;;;5058245;28;38005;-78
2022/06/19 06:33:32;;;;;;;13.25;2.63;;;13.60;99.90;;;;;;5041972;28;39693;-77
2022/06/19 06:35:59;;;;;;;17.00;2.60;;;13.60;99.90;;;;;;5042437;28;38550;-77
2022/06/19 06:38:26;;;;;;;14.15;2.50;;;13.60;99.90;;;;;;5087346;27;38312;-77
2022/06/19 06:40:53;;;;;;;15.13;2.85;;;13.60;99.90;;;;;;5039067;28;36314;-79
2022/06/19 06:43:19;;;;;;;14.23;2.85;;;13.60;99.90;;;;;;5031210;28;41136;-78
2022/06/19 06:45:46;;;;;;;12.40;2.72;;;13.70;99.90;;;;;;5050501;28;39012;-77
2022/06/19 06:48:12;;;;;;;15.95;2.58;;;13.70;99.90;;;;;;5046604;28;37905;-77
2022/06/19 06:50:40;;;;;;;15.82;3.10;;;13.70;99.90;;;;;;5068472;27;37948;-77
2022/06/19 06:53:07;;;;;;;18.67;4.47;;;13.70;99.90;;;;;;5045162;28;39402;-78
2022/06/19 06:55:38;;;;;;;12.77;2.90;;;13.70;99.90;;;;;;5042484;28;38657;-78
2022/06/19 06:58:05;;;;;;;15.48;2.80;;;13.70;99.90;;;;;;5055694;27;39812;-78
2022/06/19 07:00:31;;;;;;;18.88;3.17;;;13.70;99.90;;;;;;5082079;28;36702;-78
2022/06/19 07:02:59;;;;;;;18.48;3.83;;;13.70;99.90;;;;;;5053763;28;38885;-78
2022/06/19 07:05:26;;;;;;;15.82;3.20;;;13.80;99.90;;;;;;5030765;28;39805;-78
2022/06/19 07:07:52;;;;;;;19.65;3.00;;;13.80;99.90;;;;;;5047266;27;39162;-78
2022/06/19 07:10:19;;;;;;;12.30;3.05;;;13.80;99.90;;;;;;5047548;27;38024;-78
2022/06/19 07:12:46;;;;;;;11.05;2.53;;;13.80;99.90;;;;;;5045917;28;40240;-78
2022/06/19 07:15:13;;;;;;;17.42;3.35;;;13.80;99.90;;;;;;5084360;27;40278;-78
2022/06/19 07:17:40;;;;;;;14.95;2.38;;;13.80;99.90;;;;;;5082754;27;39042;-78
2022/06/19 07:20:07;;;;;;;24.48;4.63;;;13.80;99.90;;;;;;5052960;28;38165;-79
2022/06/19 07:22:33;;;;;;;20.48;3.80;;;13.70;99.90;;;;;;5060880;27;38146;-79
2022/06/19 07:24:59;;;;;;;16.23;3.17;;;13.70;99.90;;;;;;5082666;28;40160;-78
2022/06/19 07:27:25;;;;;;;19.90;2.95;;;13.80;99.90;;;;;;5036554;28;37976;-79
2022/06/19 07:29:51;;;;;;;15.18;2.70;;;13.80;99.90;;;;;;5035193;28;36028;-79
2022/06/19 07:32:17;;;;;;;12.60;2.67;;;13.90;99.90;;;;;;5034465;28;38664;-78
2022/06/19 07:34:43;;;;;;;16.52;2.60;;;13.90;99.90;;;;;;5037752;28;38538;-76
2022/06/19 07:37:13;;;;;;;17.67;2.88;;;13.90;99.90;;;;;;5038256;28;39700;-79
2022/06/19 07:39:40;;;;;;;13.50;2.25;;;13.80;99.90;;;;;;5071832;28;38095;-78
2022/06/19 07:42:10;;;;;;;16.73;3.03;;;13.70;99.90;;;;;;5037779;28;38752;-78
2022/06/19 07:44:37;;;;;;;11.45;3.15;;;13.70;99.90;;;;;;5060015;28;40441;-78
2022/06/19 07:52:39;;;;;;;12.55;3.80;;;13.70;99.90;;;;;;5042365;28;49497;-78
2022/06/19 07:55:07;;;;;;;10.80;2.97;;;13.80;99.90;;;;;;5031157;28;38995;-79
2022/06/19 07:57:34;;;;;;;15.35;3.35;;;13.80;99.90;;;;;;5032890;28;40197;-78
2022/06/19 08:00:00;;;;;;;16.08;3.78;;;13.80;99.90;;;;;;5056640;28;33903;-78
2022/06/19 08:02:26;;;;;;;14.02;4.03;;;13.90;99.90;;;;;;5040035;28;37650;-78
2022/06/19 08:04:52;;;;;;;17.50;4.22;;;13.80;99.90;;;;;;5084820;27;37933;-78
2022/06/19 08:07:19;;;;;;;16.67;4.00;;;13.80;99.90;;;;;;5060749;27;39531;-78
2022/06/19 08:09:46;;;;;;;12.38;4.13;;;14.00;99.90;;;;;;5056779;28;36104;-77
2022/06/19 08:12:12;;;;;;;17.40;3.97;;;14.00;99.90;;;;;;5094293;27;38628;-77
2022/06/19 08:14:39;;;;;;;22.00;5.00;;;13.90;99.90;;;;;;5063219;28;40580;-77
2022/06/19 08:17:05;;;;;;;13.15;3.70;;;13.90;99.90;;;;;;5055209;27;37422;-77
2022/06/19 08:19:32;;;;;;;18.88;4.20;;;13.90;99.90;;;;;;5056205;28;36759;-77
2022/06/19 08:21:58;;;;;;;18.70;4.63;;;13.90;99.90;;;;;;5049030;27;39322;-78
2022/06/19 08:24:24;;;;;;;13.23;3.63;;;13.90;99.90;;;;;;5045355;28;39119;-78
2022/06/19 08:27:03;;;;;;;17.27;4.45;;;14.00;99.90;;;;;;5065594;28;36765;-77
2022/06/19 08:29:29;;;;;;;18.15;4.45;;;14.10;99.90;;;;;;5057510;28;48597;-78
2022/06/19 08:31:55;;;;;;;14.98;3.88;;;14.10;99.90;;;;;;5038208;28;38802;-78
2022/06/19 08:34:21;;;;;;;16.15;4.50;;;14.20;99.90;;;;;;5042289;28;38627;-78
2022/06/19 08:36:48;;;;;;;13.98;4.45;;;14.30;99.90;;;;;;5039595;28;38749;-77
2022/06/19 08:39:17;;;;;;;14.65;5.57;;;14.30;99.90;;;;;;5062092;27;36553;-77
2022/06/19 08:41:52;;;;;;;12.40;5.25;;;14.20;99.90;;;;;;5082991;28;39629;-77
2022/06/19 08:44:57;;;;;;;17.30;5.43;;;14.30;99.90;;;;;;5080904;27;39502;-77
2022/06/19 08:47:40;;;;;;;11.88;5.15;;;14.40;99.90;;;;;;5064114;27;39862;-77
2022/06/19 08:50:06;;;;;;;18.67;6.68;;;14.50;99.90;;;;;;5057440;28;38050;-77
2022/06/19 08:52:51;;;;;;;12.25;5.53;;;14.60;99.90;;;;;;5065407;28;39070;-77
2022/06/19 08:55:38;;;;;;;10.38;4.57;;;14.70;99.90;;;;;;5051284;28;39773;-78
2022/06/19 08:58:29;;;;;;;12.45;5.05;;;14.70;99.90;;;;;;5041507;28;38385;-77
2022/06/19 09:01:02;;;;;;;15.80;4.35;;;14.70;99.90;;;;;;5043515;28;38686;-78
2022/06/19 09:06:40;;;;;;;13.30;4.32;;;14.60;99.90;;;;;;5062453;27;39481;-77
2022/06/19 09:09:35;;;;;;;15.00;4.05;;;14.70;99.90;;;;;;5060113;28;38187;-79
2022/06/19 09:12:15;;;;;;;16.02;3.75;;;14.90;99.90;;;;;;5042517;28;38720;-78
2022/06/19 09:15:00;;;;;;;13.57;4.07;;;15.00;99.90;;;;;;5038831;28;39886;-78
2022/06/19 09:17:37;;;;;;;9.98;3.85;;;15.10;99.90;;;;;;5032803;28;41022;-78
2022/06/19 09:20:28;;;;;;;14.15;3.70;;;15.20;99.90;;;;;;5064516;27;39128;-78
2022/06/19 09:23:21;;;;;;;11.57;3.50;;;15.50;99.90;;;;;;5037168;28;36884;-79
2022/06/19 09:26:08;;;;;;;;;;;15.70;99.90;;;;;;5065040;27;48369;-78
2022/06/19 09:28:37;;;;;;;12.07;3.10;;;15.70;99.90;;;;;;5061877;28;48848;-76
2022/06/19 09:31:20;;;;;;;14.90;2.97;;;15.90;99.90;;;;;;5058318;28;39112;-78
2022/06/19 09:34:05;;;;;;;15.13;3.30;;;16.00;99.90;;;;;;5039343;28;37960;-78
2022/06/19 09:36:40;;;;;;;13.40;3.45;;;16.20;99.90;;;;;;5046710;28;47286;-78
2022/06/19 09:39:24;;;;;;;16.83;4.18;;;16.00;99.90;;;;;;5035824;28;39714;-78
2022/06/19 09:42:05;;;;;;;14.02;4.20;;;15.90;99.90;;;;;;5063954;28;39481;-79
2022/06/19 09:44:38;;;;;;;17.88;5.15;;;15.70;99.90;;;;;;5082614;27;48498;-77
2022/06/19 09:47:13;;;;;;;13.32;5.25;;;15.60;99.90;;;;;;5050024;27;38755;-78
2022/06/19 09:49:51;;;;;;;10.77;4.40;;;15.50;99.90;;;;;;5041295;28;37665;-78
2022/06/19 09:52:29;;;;;;;17.48;4.53;;;15.40;99.90;;;;;;5052712;27;37791;-78
2022/06/19 09:55:08;;;;;;;12.63;3.40;;;15.30;99.90;;;;;;5061030;27;37441;-77
2022/06/19 09:58:04;;;;;;;11.85;3.17;;;15.00;99.90;;;;;;5061609;28;47240;-77
2022/06/19 10:00:35;;;;;;;13.45;4.20;;;15.00;99.90;;;;;;5076824;27;47278;-77
2022/06/19 10:03:05;;;;;;;13.93;3.70;;;15.10;99.90;;;;;;5080442;27;39761;-76
2022/06/19 10:05:33;;;;;;;13.40;5.22;;;15.10;99.90;;;;;;5054586;28;47731;-76
2022/06/19 10:08:18;;;;;;;16.30;7.07;;;15.20;99.90;;;;;;5093189;28;39209;-76
2022/06/19 10:10:58;;;;;;;18.85;8.48;;;15.20;99.90;;;;;;5059367;28;48416;-76
2022/06/19 10:13:45;;;;;;;17.15;8.82;;;15.30;99.90;;;;;;5063775;28;39787;-76
2022/06/19 10:16:35;;;;;;;16.30;9.65;;;15.40;99.90;;;;;;5059732;27;37289;-76
2022/06/19 10:19:15;;;;;;;12.48;8.38;;;15.50;99.90;;;;;;5070494;28;37933;-75
2022/06/19 10:24:42;;;;;;;14.85;6.72;;;16.00;99.90;;;;;;5052262;27;49163;-78
2022/06/19 10:27:16;;;;;;;10.93;5.18;;;16.10;99.90;;;;;;5069636;27;36257;-78
2022/06/19 10:30:10;;;;;;;13.43;5.30;;;16.10;99.90;;;;;;5068297;28;38174;-78
2022/06/19 10:33:21;;;;;;;16.08;5.65;;;16.00;99.90;;;;;;5083655;27;47656;-79
2022/06/19 10:36:21;;;;;;;18.15;5.85;;;15.80;99.90;;;;;;5013865;28;48793;-78
2022/06/19 10:39:03;;;;;;;14.30;5.28;;;15.80;99.90;;;;;;5069890;27;47446;-79
2022/06/19 10:42:05;;;;;;;10.10;5.00;;;16.10;99.90;;;;;;5055035;27;49656;-79
2022/06/19 10:44:49;;;;;;;10.20;5.03;;;16.50;99.90;;;;;;5054068;28;47369;-78
2022/06/19 10:47:46;;;;;;;11.82;4.85;;;17.00;99.90;;;;;;5049317;28;39608;-78
2022/06/19 10:50:23;;;;;;;12.13;4.07;;;18.00;99.90;;;;;;5055882;27;36572;-78
2022/06/19 10:53:08;;;;;;;10.43;3.78;;;18.70;99.90;;;;;;5060571;27;39324;-77
2022/06/19 10:55:37;;;;;;;9.52;3.60;;;18.80;99.90;;;;;;5051401;28;47286;-79
2022/06/19 10:58:30;;;;;;;8.98;3.63;;;18.80;99.90;;;;;;5083628;28;37446;-79
2022/06/19 11:01:03;;;;;;;8.95;2.60;;;18.80;99.90;;;;;;5056412;27;37191;-78
2022/06/19 11:04:07;;;;;;;8.38;2.22;;;18.60;99.90;;;;;;5051792;28;46861;-79
2022/06/19 11:06:33;;;;;;;7.22;2.50;;;18.30;99.90;;;;;;5046669;28;47433;-78
2022/06/19 11:09:06;;;;;;;8.55;2.08;;;18.30;99.90;;;;;;5003527;28;39377;-78
2022/06/19 11:11:37;;;;;;;8.48;1.98;;;18.40;99.90;;;;;;5037132;28;48383;-78
2022/06/19 11:14:11;;;;;;;3.65;1.40;;;18.50;99.90;;;;;;5047468;28;39451;-78
2022/06/19 11:16:59;;;;;;;3.67;1.58;;;18.30;99.90;;;;;;5042149;27;38818;-79
2022/06/19 11:19:45;;;;;;;5.88;1.50;;;18.20;99.90;;;;;;5041087;28;39349;-78
2022/06/19 11:22:33;;;;;;;5.50;1.38;;;18.70;99.90;;;;;;5041528;27;37318;-79
2022/06/19 11:25:20;;;;;;;5.50;1.20;;;19.50;99.90;;;;;;5059539;28;39383;-78
2022/06/19 11:28:04;;;;;;;4.45;1.40;;;19.60;99.90;;;;;;5038196;28;48511;-78
2022/06/19 11:30:48;;;;;;;4.88;1.10;;;19.50;99.90;;;;;;5038993;28;48909;-78
2022/06/19 11:33:39;;;;;;;5.05;1.35;;;19.30;99.90;;;;;;5045729;28;37524;-76
2022/06/19 11:36:08;;;;;;;7.90;1.42;;;19.70;99.90;;;;;;5033068;28;39384;-79
2022/06/19 11:38:43;;;;;;;4.25;1.25;;;19.80;99.90;;;;;;5056193;28;39182;-80
2022/06/19 11:41:21;;;;;;;5.85;1.25;;;19.60;99.90;;;;;;5051162;27;38778;-77
2022/06/19 11:44:14;;;;;;;4.75;1.25;;;19.50;99.90;;;;;;5039947;28;37788;-78
2022/06/19 11:46:51;;;;;;;3.95;1.20;;;19.30;99.90;;;;;;5048173;28;48504;-78
2022/06/19 11:49:23;;;;;;;4.57;1.40;;;19.10;99.90;;;;;;5042583;27;40488;-78
2022/06/19 11:52:03;;;;;;;4.22;1.27;;;18.90;99.90;;;;;;5047188;28;37553;-80
2022/06/19 11:54:43;;;;;;;6.13;1.45;;;18.70;99.90;;;;;;5009559;28;49144;-80
2022/06/19 11:57:29;;;;;;;4.53;1.40;;;18.50;99.90;;;;;;5053830;28;38279;-79
2022/06/19 12:00:07;;;;;;;6.35;1.45;;;18.40;99.90;;;;;;5080344;28;39610;-80
2022/06/19 12:02:39;;;;;;;5.05;1.65;;;18.50;99.90;;;;;;5052111;27;48923;-80
2022/06/19 12:05:22;;;;;;;5.28;1.73;;;18.70;99.90;;;;;;5064860;27;37762;-80
2022/06/19 12:07:49;;;;;;;4.15;1.50;;;18.80;99.90;;;;;;5059298;27;38787;-79
2022/06/19 12:10:23;;;;;;;4.07;1.33;;;19.10;99.90;;;;;;5054887;27;39917;-79
2022/06/19 12:13:01;;;;;;;3.97;1.33;;;19.40;99.90;;;;;;5035226;27;38121;-81
2022/06/19 12:15:30;;;;;;;6.18;1.70;;;19.50;99.90;;;;;;5048674;28;36319;-77
2022/06/19 12:18:03;;;;;;;4.20;1.42;;;19.70;99.90;;;;;;5060677;27;38971;-78
2022/06/19 12:20:38;;;;;;;4.20;1.20;;;19.70;99.90;;;;;;5058365;28;49098;-79
2022/06/19 12:23:15;;;;;;;4.80;1.05;;;19.70;99.90;;;;;;5049717;28;37627;-78
2022/06/19 12:25:44;;;;;;;5.63;1.55;;;19.90;99.90;;;;;;5042631;28;37314;-78
2022/06/19 12:28:55;;;;;;;4.40;1.52;;;19.90;99.90;;;;;;5044296;27;38477;-79
2022/06/19 12:31:30;;;;;;;4.97;1.20;;;19.70;99.90;;;;;;5048161;28;38438;-78
2022/06/19 12:34:12;;;;;;;5.18;1.60;;;19.40;99.90;;;;;;5049734;27;38350;-78
2022/06/19 12:36:43;;;;;;;5.97;1.42;;;19.40;99.90;;;;;;5036229;28;48254;-78
2022/06/19 12:39:17;;;;;;;7.15;1.50;;;18.90;99.90;;;;;;5061541;28;38745;-79
2022/06/19 12:42:11;;;;;;;5.30;1.45;;;18.60;99.90;;;;;;5036442;28;38878;-79
2022/06/19 12:44:43;;;;;;;6.47;1.80;;;18.30;99.90;;;;;;5050078;28;47226;-80
2022/06/19 12:47:14;;;;;;;13.35;3.08;;;18.40;99.90;;;;;;5076496;27;36108;-79
2022/06/19 12:50:18;;;;;;;10.32;2.13;;;18.40;99.90;;;;;;5073453;28;42368;-78
2022/06/19 12:53:16;;;;;;;9.45;2.00;;;18.50;99.90;;;;;;5060397;27;48898;-77
2022/06/19 12:56:17;;;;;;;5.60;1.40;;;18.60;99.90;;;;;;5048599;28;48769;-79
2022/06/19 12:59:41;;;;;;;5.20;1.80;;;18.80;99.90;;;;;;5025621;28;48796;-78
2022/06/19 13:02:25;;;;;;;8.00;1.67;;;19.10;99.90;;;;;;5041755;28;48001;-79
2022/06/19 13:05:13;;;;;;;9.27;2.00;;;19.10;99.90;;;;;;5042728;28;37872;-79
2022/06/19 13:07:50;;;;;;;5.63;1.70;;;18.90;99.90;;;;;;5053183;28;47333;-78
2022/06/19 13:10:28;;;;;;;5.47;1.38;;;18.70;99.90;;;;;;5062276;27;38747;-78
2022/06/19 13:13:03;;;;;;;6.95;1.52;;;18.60;99.90;;;;;;5066160;27;39466;-78
2022/06/19 13:15:57;;;;;;;7.00;1.90;;;18.50;99.90;;;;;;5096787;27;48163;-77
2022/06/19 13:18:57;;;;;;;6.68;1.52;;;18.50;99.90;;;;;;5067919;27;39388;-77
2022/06/19 13:21:42;;;;;;;7.45;1.75;;;18.50;99.90;;;;;;5058233;27;38431;-77